CYZS

Coral Harbour Airport

Coral Harbour, Canada
METAR CYZS 230700Z 35012KT 15SM IC DRSN FEW020 FEW210 M36/M40 A2971 RMK SC1CI1 SLP076
Observed Flight Rules
Feb-23 @ 07:00 UTC (an hour ago) Visual Flight Rules
Wind Visibility Clouds Conditions
350° at 12 knots 15 miles
  • Few at 2,000' AGL
  • Few at 21,000' AGL
  • Ice crystals
  • Low drifting
  • Snow
Temperatures Readings
Current -36°C / -33°F
Dewpoint -40°C / -40°F
Humidity 66%
Altimeter 29.71" Hg
Pressure 1007.6 hPa
Elevation 64
METAR CYZS 230700Z 35012KT 15SM IC DRSN FEW020 FEW210 M36/M40 A2971 RMK SC1CI1 SLP076
Observed Flight Rules
Feb-23 @ 07:00 UTC
(an hour ago)
VFR
Wind Visibility
350° at 12 knots 15 miles
Clouds
  • Few at 2,000' AGL
  • Few at 21,000' AGL
Conditions
  • Ice crystals
  • Low drifting
  • Snow
Temperature Dewpoint
-36°C / -33°F -40°C / -40°F
Humidity Altimeter Pressure
66% 29.71" Hg 1007.6 hPa